This is the latest recevied weather packets stored in our database for station/object KO4APQ. If no packets are shown the sender has not sent any weather packets the latest 10 day(s).
| Time | Temp. | Humidity | Pressure | Rain* | Wind** | Luminosity | Snow |
|---|---|---|---|---|---|---|---|
| 1777821063 | 16.11° C | 43% | 1021.2 hPa | 0 mm | - | 815 W/m² | - |
| 1777820760 | 15.56° C | 46% | 1021.2 hPa | 0 mm | - | 803 W/m² | - |
| 1777820456 | 15.56° C | 43% | 1021.1 hPa | 0 mm | - | 790 W/m² | - |
| 1777818032 | 14.44° C | 55% | 1021.1 hPa | 0 mm | - | 666 W/m² | - |
| 1777817426 | 13.89° C | 58% | 1021.2 hPa | 0 mm | - | 630 W/m² | - |
| 1777816820 | 13.89° C | 54% | 1021.1 hPa | 0 mm | - | 597 W/m² | - |
| 1777811368 | 9.44° C | 75% | 1020.9 hPa | 0 mm | - | 126 W/m² | - |
| 1777810763 | 8.89° C | 77% | 1020.7 hPa | 0 mm | - | 108 W/m² | - |
| 1777809853 | 7.78° C | 81% | 1020.6 hPa | 0 mm | - | 92 W/m² | - |
| 1777809550 | 7.22° C | 85% | 1020.6 hPa | 0 mm | - | 87 W/m² | - |
| 1777806527 | 3.33° C | 97% | 1019.9 hPa | 0 mm | - | 20 W/m² | - |
| 1777806224 | 3.33° C | 97% | 1019.7 hPa | 0 mm | - | 17 W/m² | - |
| 1777805920 | 3.33° C | 97% | 1019.7 hPa | 0 mm | - | 14 W/m² | - |
| 1777804710 | 3.33° C | 97% | 1019.2 hPa | 0 mm | - | 2 W/m² | - |
| 1777804104 | 3.33° C | 97% | 1019.3 hPa | 0 mm | - | 0 W/m² | - |
| 1777803497 | 3.33° C | 96% | 1019.2 hPa | 0 mm | - | 0 W/m² | - |
| 1777802891 | 3.33° C | 96% | 1019.1 hPa | 0 mm | - | 0 W/m² | - |
| 1777802590 | 3.89° C | 97% | 1019 hPa | 0 mm | - | 0 W/m² | - |
| 1777802287 | 3.89° C | 96% | 1019 hPa | 0 mm | - | 0 W/m² | - |
| 1777801682 | 3.89° C | 96% | 1018.9 hPa | 0 mm | - | 0 W/m² | - |
| 1777801075 | 3.89° C | 96% | 1018.9 hPa | 0 mm | - | 0 W/m² | - |
| 1777800773 | 3.89° C | 96% | 1018.8 hPa | 0 mm | - | 0 W/m² | - |
| 1777800468 | 3.89° C | 96% | 1018.7 hPa | 0 mm | - | 0 W/m² | - |
| 1777800165 | 3.89° C | 96% | 1018.8 hPa | 0 mm | - | 0 W/m² | - |
| 1777799865 | 3.89° C | 96% | 1018.7 hPa | 0 mm | - | 0 W/m² | - |
* Rain latest hour (hover to see other rain measurements)
** Current wind speed in m/s (hover to see current wind gust speed)